Bhumibol Dam, Thaïlande

15:29 ICT le 28 juillet 2016 (GMT +0700)
Sukhothai | | Change Station

Alt. 177 ft 17.24 °N, 99.82 °E | Updated 29 minutes ago

Scattered Clouds
Nuages épars
93 ° F
Paraît 107 ° F
N
4
Vent Variable Vent de NNO

Aujourd'hui
Haut(e) -- | Bas -- ° F
--% Risque de précip.
Hier
Haut(e) -- | Bas -- ° F
Precip. -- pouce
Pression 29.59 pouce
Visibilité 6.2 Miles terrestres
Nuages Peu 2000 ft
Nuages épars 2200 ft
indice de chaleur 107 ° F
Point de rosée 77 ° F
Humidité 59%
Précipitations 0.00 pouce
Profondeur de la couche neigeuse Non disponible.
6:02 AM 6:58 PM
Lune descendante, 34% visible
METAR VTPO 280800Z 33003KT 9999 FEW020CB SCT022 34/25 Q1002
Pression 29.59 pouce
Visibilité 6.2 Miles terrestres
Nuages Peu 2000 ft
Nuages épars 2200 ft
indice de chaleur 107 ° F
Point de rosée 77 ° F
Humidité 59%
Précipitations 0.00 pouce
Profondeur de la couche neigeuse Non disponible.
6:02 AM 6:58 PM
Lune descendante, 34% visible
METAR VTPO 280800Z 33003KT 9999 FEW020CB SCT022 34/25 Q1002

10-Day Weather Forecast

No radar image for this location.
×

Almanac

Astronomie

Jul. 28, 2016 Lever Coucher
Temps réel
Crépuscule civil
Crépuscule nautique
Crépuscule astronomique
Lune
Durée de lumière visible
Longueur du jour
Tomorrow will be .
, % of the Moon is Illuminated

Extrêmes aujourd'hui

Country Highs Country Lows

Community

WunderPhotos

Upload Photos

1,928,070 Photos téléchargées !

WunderBlog® & News

Nearby

Qualité de l'air

  Qualité de l'air Indice de la qualité de l'air Polluant
Not available.

Épaisseur de neige

Station Depth Altitude

Activité sismique

Ville Distance Mag. Time & Date
Minimum magnitude displayed is 2.5.

Températures des eaux côtières

Lieu Température

Stations

Stations météo à proximité

Emplacement de la station Température Refroidissement éolien Point de rosée Humidité Vent Precip. Alt. Mise à jour Type